Time;durP1;ratioP1;P1;durP2;ratioP2;P2;SDS_P1;SDS_P2;PMS_P1;PMS_P2;Temp;Humidity;BMP_temperature;BMP_pressure;BME280_temperature;BME280_humidity;BME280_pressure;Samples;Min_cycle;Max_cycle;Signal;HPM_P1;HPM_P2
2022/02/01 00:07:11;;;;;;;1.65;0.35;;;3.80;99.90;;;;;;20663267;28;20566;-46
2022/02/01 00:37:36;;;;;;;3.25;0.20;;;3.80;99.90;;;;;;20689767;28;20045;-46
2022/02/01 00:47:36;;;;;;;1.65;0.20;;;4.10;99.90;;;;;;20748211;28;20589;-45
2022/02/01 00:57:37;;;;;;;0.55;0.10;;;4.30;99.90;;;;;;20742483;28;20508;-46
2022/02/01 01:07:38;;;;;;;4.65;0.60;;;4.40;99.90;;;;;;20716239;28;20053;-46
2022/02/01 01:58:41;;;;;;;0.43;0.10;;;4.40;99.90;;;;;;20735282;28;20047;-46
2022/02/01 02:08:46;;;;;;;2.35;0.47;;;4.30;99.90;;;;;;20734878;28;20049;-46
2022/02/01 02:18:47;;;;;;;1.17;0.90;;;4.20;99.90;;;;;;20738896;28;20042;-46
2022/02/01 02:28:48;;;;;;;0.35;0.22;;;4.30;99.90;;;;;;20730407;28;20552;-46
2022/02/01 02:39:04;;;;;;;1.58;0.68;;;4.40;99.90;;;;;;20726948;28;20547;-46
2022/02/01 02:49:06;;;;;;;2.40;0.30;;;4.50;99.90;;;;;;20734433;28;20041;-46
2022/02/01 02:59:07;;;;;;;4.55;0.40;;;4.60;99.90;;;;;;20748234;28;20080;-46
2022/02/01 03:09:08;;;;;;;5.93;0.90;;;4.60;99.90;;;;;;20744211;28;20049;-45
2022/02/01 03:29:28;;;;;;;4.90;0.88;;;4.80;99.90;;;;;;20737910;28;20063;-45
2022/02/01 03:39:30;;;;;;;1.05;0.35;;;5.00;99.90;;;;;;20738974;28;20320;-46
2022/02/01 03:49:32;;;;;;;1.02;0.40;;;5.00;99.90;;;;;;20737857;28;20057;-46
2022/02/01 03:59:33;;;;;;;7.78;1.15;;;5.10;99.90;;;;;;20744514;28;20049;-46
2022/02/01 04:09:35;;;;;;;1.30;0.30;;;5.20;99.90;;;;;;20740246;28;20100;-46
2022/02/01 04:19:36;;;;;;;4.88;0.80;;;5.10;99.90;;;;;;20743197;28;20049;-46
2022/02/01 04:29:43;;;;;;;5.70;0.60;;;5.10;99.90;;;;;;20735167;28;20041;-46
2022/02/01 04:39:44;;;;;;;1.58;0.50;;;5.20;99.90;;;;;;20739849;28;20045;-46
2022/02/01 04:49:46;;;;;;;7.40;1.10;;;5.20;99.90;;;;;;20732826;28;20131;-46
2022/02/01 04:59:46;;;;;;;1.38;1.08;;;5.20;99.90;;;;;;20722106;28;20041;-46
2022/02/01 05:09:47;;;;;;;2.13;0.47;;;5.40;99.90;;;;;;20723042;28;20642;-46
2022/02/01 05:19:55;;;;;;;6.70;1.52;;;5.40;99.90;;;;;;20713010;28;20114;-46
2022/02/01 05:29:57;;;;;;;7.45;1.95;;;5.40;99.90;;;;;;20727240;28;20053;-46
2022/02/01 05:39:58;;;;;;;5.72;1.60;;;5.40;99.90;;;;;;20726314;28;20050;-46
2022/02/01 05:49:59;;;;;;;6.63;1.67;;;5.40;99.90;;;;;;20737244;28;20180;-46
2022/02/01 06:00:00;;;;;;;2.35;1.23;;;5.50;99.90;;;;;;20713144;28;20045;-46
2022/02/01 06:10:09;;;;;;;12.20;1.38;;;5.40;99.90;;;;;;20723299;28;20082;-46
2022/02/01 06:20:12;;;;;;;3.08;1.20;;;5.50;99.90;;;;;;20740591;28;20032;-46
2022/02/01 06:30:12;;;;;;;6.38;2.63;;;5.50;99.90;;;;;;20732448;28;20192;-46
2022/02/01 06:40:14;;;;;;;4.00;1.50;;;5.50;99.90;;;;;;20730037;28;20037;-46
2022/02/01 06:50:19;;;;;;;19.30;3.22;;;5.50;99.90;;;;;;20712773;28;20084;-46
2022/02/01 07:00:20;;;;;;;5.03;2.22;;;5.50;99.90;;;;;;20733571;28;20520;-46
2022/02/01 07:10:22;;;;;;;6.38;2.25;;;5.50;99.90;;;;;;20705724;28;20041;-46
2022/02/01 07:20:24;;;;;;;7.93;2.92;;;5.50;99.90;;;;;;20729948;28;20041;-46
2022/02/01 07:30:24;;;;;;;8.68;2.65;;;5.60;99.90;;;;;;20749422;28;20053;-46
2022/02/01 07:40:25;;;;;;;5.50;1.75;;;6.00;99.90;;;;;;20741460;28;20041;-46
2022/02/01 07:50:27;;;;;;;5.00;2.05;;;6.10;99.90;;;;;;20688372;28;28295;-46
2022/02/01 08:00:28;;;;;;;3.53;1.38;;;6.30;99.90;;;;;;20682374;28;20042;-46
2022/02/01 08:10:41;;;;;;;5.35;1.85;;;6.40;99.90;;;;;;20730309;28;20049;-46
2022/02/01 08:20:54;;;;;;;5.00;2.05;;;6.50;99.90;;;;;;20701049;28;20497;-46
2022/02/01 08:30:55;;;;;;;6.07;1.13;;;6.60;99.90;;;;;;20728924;28;20072;-46
2022/02/01 08:40:58;;;;;;;3.20;1.30;;;6.60;99.90;;;;;;20708989;28;20668;-46
2022/02/01 08:51:03;;;;;;;2.03;0.80;;;6.80;99.90;;;;;;20722210;28;20053;-46
2022/02/01 09:01:04;;;;;;;2.15;1.10;;;6.90;99.90;;;;;;20712155;28;20040;-46
2022/02/01 09:11:06;;;;;;;4.63;1.25;;;7.00;99.90;;;;;;20694868;28;20041;-46
2022/02/01 09:21:08;;;;;;;2.03;0.85;;;7.00;99.90;;;;;;20722488;28;20375;-46
2022/02/01 09:31:10;;;;;;;3.78;0.95;;;7.20;99.90;;;;;;20713526;28;20070;-46
2022/02/01 09:41:11;;;;;;;1.27;0.65;;;7.20;99.90;;;;;;20771355;28;20057;-46
2022/02/01 09:51:11;;;;;;;3.40;1.23;;;7.20;99.90;;;;;;20780618;28;20041;-46
2022/02/01 10:01:19;;;;;;;2.15;1.05;;;7.30;99.90;;;;;;20787591;28;21804;-46
2022/02/01 10:11:19;;;;;;;5.20;1.07;;;7.30;99.90;;;;;;20756569;28;20042;-46
2022/02/01 10:21:21;;;;;;;7.15;1.55;;;7.50;99.90;;;;;;20796274;28;21984;-46
2022/02/01 10:31:30;;;;;;;4.77;2.30;;;7.60;99.90;;;;;;20791080;28;20537;-47
2022/02/01 10:41:31;;;;;;;9.18;1.90;;;7.60;99.90;;;;;;20794775;28;20065;-46
2022/02/01 10:51:32;;;;;;;7.82;2.60;;;7.70;99.90;;;;;;20787881;28;20069;-46
2022/02/01 11:01:33;;;;;;;6.82;1.85;;;7.80;99.90;;;;;;20803507;28;20061;-47
2022/02/01 11:11:35;;;;;;;3.30;1.50;;;7.90;99.90;;;;;;20785052;28;20045;-44
2022/02/01 11:21:51;;;;;;;10.70;1.77;;;8.00;99.90;;;;;;20779165;28;20486;-45
2022/02/01 11:31:53;;;;;;;5.55;1.85;;;8.00;99.90;;;;;;20782164;28;20062;-47
2022/02/01 11:41:54;;;;;;;8.05;1.77;;;8.00;99.90;;;;;;20785767;28;20146;-47
2022/02/01 11:52:13;;;;;;;4.65;1.20;;;8.20;99.90;;;;;;20768209;28;20057;-46
2022/02/01 12:02:39;;;;;;;4.35;0.90;;;8.20;99.90;;;;;;20779355;28;20041;-46
2022/02/01 12:12:42;;;;;;;6.07;1.25;;;8.40;99.90;;;;;;20793733;28;20354;-46
2022/02/01 12:22:59;;;;;;;3.38;1.10;;;8.50;99.90;;;;;;20780247;28;20049;-46
2022/02/01 12:32:59;;;;;;;3.37;1.33;;;8.80;99.90;;;;;;20800002;28;20509;-45
2022/02/01 12:43:08;;;;;;;3.65;1.80;;;8.90;99.90;;;;;;20732402;28;20539;-45
2022/02/01 12:53:09;;;;;;;2.63;0.70;;;9.00;99.90;;;;;;20751042;28;20045;-46
2022/02/01 13:03:10;;;;;;;4.43;0.80;;;9.10;99.90;;;;;;20748491;28;20049;-45
2022/02/01 13:23:17;;;;;;;3.42;0.70;;;9.30;99.90;;;;;;20711144;28;20060;-45
2022/02/01 13:33:18;;;;;;;3.53;0.73;;;9.30;99.90;;;;;;20725378;28;20068;-46
2022/02/01 13:43:23;;;;;;;5.10;0.77;;;9.30;99.90;;;;;;20761115;28;20308;-46
2022/02/01 13:53:24;;;;;;;6.40;0.70;;;9.40;99.90;;;;;;20736562;28;20050;-46
2022/02/01 14:13:56;;;;;;;3.08;0.80;;;9.40;99.90;;;;;;20771256;28;20366;-46
2022/02/01 14:54:08;;;;;;;2.58;0.70;;;9.50;99.90;;;;;;20822570;28;20041;-46
2022/02/01 15:14:22;;;;;;;9.90;0.70;;;9.50;99.90;;;;;;20851732;28;20050;-46
2022/02/01 15:24:23;;;;;;;4.07;0.60;;;9.50;99.90;;;;;;20833445;28;20072;-46
2022/02/01 15:34:29;;;;;;;2.40;0.40;;;9.60;99.90;;;;;;20838897;28;20065;-46
2022/02/01 16:05:00;;;;;;;10.80;1.35;;;9.60;99.90;;;;;;20829664;28;20049;-47
2022/02/01 16:15:00;;;;;;;10.68;1.90;;;9.70;99.90;;;;;;20831681;28;20038;-44
2022/02/01 16:25:04;;;;;;;3.40;0.90;;;9.60;99.90;;;;;;20818627;28;20137;-44
2022/02/01 16:35:05;;;;;;;6.05;0.85;;;9.60;99.90;;;;;;20828142;28;20067;-44
2022/02/01 16:45:08;;;;;;;8.18;1.10;;;9.70;99.90;;;;;;20836270;28;20191;-44
2022/02/01 16:55:18;;;;;;;4.40;0.77;;;9.60;99.90;;;;;;20823518;28;20041;-44
2022/02/01 17:05:19;;;;;;;7.18;1.38;;;9.60;99.90;;;;;;20831979;28;20034;-47
2022/02/01 17:16:05;;;;;;;4.90;1.67;;;9.70;99.90;;;;;;20812959;28;20038;-45
2022/02/01 17:25:41;;;;;;;5.57;0.88;;;9.70;99.90;;;;;;20827641;28;20348;-44
2022/02/01 17:35:41;;;;;;;3.37;0.60;;;9.70;99.90;;;;;;20817626;28;20129;-44
2022/02/01 17:45:47;;;;;;;7.43;1.35;;;9.70;99.90;;;;;;20823716;28;21047;-45
2022/02/01 17:55:49;;;;;;;6.47;0.90;;;9.70;99.90;;;;;;20801701;28;20052;-45
2022/02/01 18:05:49;;;;;;;8.15;0.98;;;9.70;99.90;;;;;;20819967;28;20060;-45
2022/02/01 18:15:50;;;;;;;8.93;2.33;;;9.70;99.90;;;;;;20813618;28;20049;-44
2022/02/01 18:25:52;;;;;;;11.57;1.45;;;9.70;99.90;;;;;;20803385;28;20520;-44
2022/02/01 18:36:01;;;;;;;7.43;0.88;;;9.70;99.90;;;;;;20825743;28;20516;-44
2022/02/01 18:46:12;;;;;;;5.70;1.33;;;9.80;99.90;;;;;;20839434;28;20053;-44
2022/02/01 18:56:30;;;;;;;11.32;1.45;;;9.80;99.90;;;;;;20860541;28;20124;-44
2022/02/01 19:17:01;;;;;;;12.80;1.92;;;9.70;99.90;;;;;;20817824;28;20108;-45
2022/02/01 19:27:04;;;;;;;10.70;1.80;;;9.70;99.90;;;;;;20822062;28;20045;-44
2022/02/01 19:37:06;;;;;;;5.18;1.50;;;9.80;99.90;;;;;;20745643;28;20045;-45
2022/02/01 19:47:28;;;;;;;11.10;2.15;;;9.70;99.90;;;;;;20831944;28;20045;-45
2022/02/01 19:57:31;;;;;;;7.53;1.27;;;9.70;99.90;;;;;;20812055;28;20078;-45
2022/02/01 20:07:33;;;;;;;5.82;1.45;;;9.70;99.90;;;;;;20772805;28;20091;-45
2022/02/01 20:17:34;;;;;;;14.55;2.33;;;9.50;99.90;;;;;;20796882;28;20037;-45
2022/02/01 20:27:35;;;;;;;12.47;1.50;;;9.50;99.90;;;;;;20713048;28;20197;-44
2022/02/01 20:37:38;;;;;;;9.57;2.08;;;9.50;99.90;;;;;;20796781;28;20555;-45
2022/02/01 20:47:39;;;;;;;13.15;2.88;;;9.50;99.90;;;;;;20817286;28;20041;-45
2022/02/01 20:57:39;;;;;;;9.38;3.30;;;9.60;99.90;;;;;;20811964;28;20049;-45
2022/02/01 21:07:41;;;;;;;14.23;2.03;;;9.50;99.90;;;;;;20813929;28;20041;-45
2022/02/01 21:17:41;;;;;;;13.63;4.47;;;9.60;99.90;;;;;;20797888;28;20767;-45
2022/02/01 21:27:44;;;;;;;15.10;2.50;;;9.50;99.90;;;;;;20819262;28;20049;-45
2022/02/01 21:37:44;;;;;;;8.80;1.85;;;9.40;99.90;;;;;;20817240;28;20153;-45
2022/02/01 21:47:49;;;;;;;17.38;2.88;;;9.30;99.90;;;;;;20806607;28;20068;-44
2022/02/01 21:57:50;;;;;;;5.82;1.88;;;9.20;99.90;;;;;;20768787;28;20055;-45
2022/02/01 22:07:52;;;;;;;8.45;3.10;;;9.20;99.90;;;;;;20731795;28;20056;-45
2022/02/01 22:17:59;;;;;;;12.30;2.08;;;9.10;99.90;;;;;;20763292;28;20044;-45
2022/02/01 22:28:00;;;;;;;15.85;1.88;;;8.90;99.90;;;;;;20761473;28;20309;-45
2022/02/01 22:38:00;;;;;;;20.73;2.63;;;8.90;99.90;;;;;;20754952;28;20079;-45
2022/02/01 22:48:02;;;;;;;24.23;2.80;;;8.80;99.90;;;;;;20767944;28;20144;-45
2022/02/01 22:58:03;;;;;;;16.33;2.03;;;8.80;99.90;;;;;;20764914;28;20074;-45
2022/02/01 23:08:07;;;;;;;16.63;1.80;;;8.70;99.90;;;;;;20741025;28;20103;-45
2022/02/01 23:18:08;;;;;;;17.50;2.28;;;8.60;99.90;;;;;;20764950;28;20303;-45
2022/02/01 23:28:11;;;;;;;10.13;1.95;;;8.40;99.90;;;;;;20763215;28;20056;-44
2022/02/01 23:48:19;;;;;;;10.70;2.07;;;8.40;99.90;;;;;;20758641;28;20056;-45
2022/02/01 23:58:47;;;;;;;6.75;3.00;;;8.50;99.90;;;;;;20748160;28;20056;-45
